Butterfield, Minnesota
Current Conditions -  °F | °C
As of 3:15 AM on Monday 22 Dec 2014 (Local Time) from KJYG Reporting Station
Haze Haze  
Wind Chill: 30°   Ceiling: 400
Heat Index: 39°   Visibility: 4mi
Dew Point: 37°   Wind: 16mph
Humidity: 93%   Direction: 140°SE
Pressure: 29.62"   Gusts: NA
Location:  43.96°N, 94.79°W
Report Text: KJYG 220915Z AUTO 14014KT 4SM BR OVC004 04/03 A2962 RMK AO2
Loading
Personal Weather Stations






























Interactive Weather Map New forecast layout! Learn more

10-Day Weather Forecast

Advertisements
Track Severe Weather on mobile